Islip, New York
Current Conditions -  °F | °C
As of 8:56 AM on Monday 26 Jan 2015 (Local Time) from KISP Reporting Station
Light Snow Light Snow  
Wind Chill: -11°   Ceiling: 2200
Heat Index: -4°   Visibility: 1mi
Dew Point: -8°   Wind: 15mph
Humidity: 77%   Direction: 60°ENE
Pressure: 29.99"   Gusts: NA
Location:  40.73°N, 73.21°W
Report Text: KISP 261356Z 06013KT 1SM R06/P6000FT -SN SCT011 BKN022 OVC030 M04/M08 A2999 RMK AO2 SFC VIS 1 3/4 SNE05B21 SLP158 P0001 T10441078
Loading
Personal Weather Stations






























Interactive Weather Map New forecast layout! Learn more

10-Day Weather Forecast

Advertisements
Track Severe Weather on mobile